createdAt,value
2019-02-20T00:01:01.565Z,9.80
2019-02-20T00:03:46.203Z,9.80
2019-02-20T00:06:29.577Z,9.80
2019-02-20T00:09:14.212Z,9.80
2019-02-20T00:11:57.176Z,9.80
2019-02-20T00:14:39.893Z,9.90
2019-02-20T00:17:23.381Z,9.90
2019-02-20T00:20:06.441Z,9.90
2019-02-20T00:22:49.240Z,10.00
2019-02-20T00:25:32.496Z,10.10
2019-02-20T00:28:15.716Z,10.10
2019-02-20T00:31:02.332Z,10.10
2019-02-20T00:33:45.056Z,10.10
2019-02-20T00:36:27.565Z,10.10
2019-02-20T00:39:11.112Z,10.10
2019-02-20T00:44:58.895Z,10.00
2019-02-20T00:48:04.048Z,10.00
2019-02-20T00:51:31.693Z,9.90
2019-02-20T00:54:14.445Z,9.90
2019-02-20T00:56:57.918Z,9.90
2019-02-20T00:59:41.458Z,9.70
2019-02-20T01:02:24.396Z,9.60
2019-02-20T01:05:07.195Z,9.60
2019-02-20T01:07:51.084Z,9.50
2019-02-20T01:10:34.436Z,9.40
2019-02-20T01:13:17.800Z,9.30
2019-02-20T01:16:00.336Z,9.20
2019-02-20T01:18:44.507Z,9.10
2019-02-20T01:21:29.083Z,9.00
2019-02-20T01:24:11.660Z,8.90
2019-02-20T01:29:45.155Z,8.70
2019-02-20T01:32:28.309Z,8.70
2019-02-20T01:35:11.309Z,8.70
2019-02-20T01:37:55.701Z,8.60
2019-02-20T01:40:39.394Z,8.60
2019-02-20T01:43:23.253Z,8.50
2019-02-20T01:46:06.657Z,8.50
2019-02-20T01:48:49.992Z,8.50
2019-02-20T01:51:32.936Z,8.40
2019-02-20T01:54:18.394Z,8.40
2019-02-20T01:57:01.626Z,8.30
2019-02-20T01:59:45.261Z,8.30
2019-02-20T02:02:28.576Z,8.30
2019-02-20T02:05:15.410Z,8.30
2019-02-20T02:07:57.422Z,8.20
2019-02-20T02:10:40.856Z,8.20
2019-02-20T02:13:23.437Z,8.10
2019-02-20T02:16:08.389Z,8.00
2019-02-20T02:18:53.212Z,8.00
2019-02-20T02:21:36.622Z,7.90
2019-02-20T02:24:08.006Z,7.90
2019-02-20T02:26:58.432Z,7.80
2019-02-20T02:29:42.044Z,7.70
2019-02-20T02:32:25.226Z,7.60
2019-02-20T02:35:08.748Z,7.60
2019-02-20T02:37:51.726Z,7.60
2019-02-20T02:40:35.509Z,7.60
2019-02-20T02:43:20.771Z,7.60
2019-02-20T02:46:03.812Z,7.60
2019-02-20T02:48:46.889Z,7.60
2019-02-20T02:51:30.364Z,7.50
2019-02-20T02:54:16.888Z,7.50
2019-02-20T02:56:59.466Z,7.50
2019-02-20T02:59:44.327Z,7.40
2019-02-20T03:02:27.740Z,7.40
2019-02-20T03:05:12.899Z,7.30
2019-02-20T03:07:56.062Z,7.30
2019-02-20T03:10:38.908Z,7.20
2019-02-20T03:13:21.596Z,7.20
2019-02-20T03:16:06.435Z,7.20
2019-02-20T03:18:50.534Z,7.20
2019-02-20T03:21:33.434Z,7.20
2019-02-20T03:24:16.567Z,7.10
2019-02-20T03:26:59.385Z,7.10
2019-02-20T03:29:42.537Z,7.10
2019-02-20T03:32:25.785Z,7.10
2019-02-20T03:35:09.550Z,7.10
2019-02-20T03:37:52.364Z,7.10
2019-02-20T03:40:35.652Z,7.00
2019-02-20T03:43:18.468Z,7.00
2019-02-20T03:46:01.253Z,6.90
2019-02-20T03:48:43.973Z,6.90
2019-02-20T03:51:27.737Z,6.80
2019-02-20T03:54:10.390Z,6.80
2019-02-20T03:56:53.894Z,6.90
2019-02-20T03:59:36.511Z,6.90
2019-02-20T04:02:21.498Z,6.80
2019-02-20T04:05:06.241Z,6.80
2019-02-20T04:07:51.073Z,6.90
2019-02-20T04:10:34.528Z,6.80
2019-02-20T04:13:18.588Z,6.80
2019-02-20T04:16:01.995Z,6.80
2019-02-20T04:18:45.171Z,6.80
2019-02-20T04:21:28.732Z,6.70
2019-02-20T04:24:12.682Z,6.70
2019-02-20T04:26:55.344Z,6.60
2019-02-20T04:29:38.348Z,6.60
2019-02-20T04:32:25.025Z,6.60
2019-02-20T04:35:07.985Z,6.50
2019-02-20T04:37:51.130Z,6.50
2019-02-20T04:40:33.844Z,6.40
2019-02-20T04:43:18.480Z,6.50
2019-02-20T04:46:01.278Z,6.50
2019-02-20T04:48:44.417Z,6.40
2019-02-20T04:51:27.594Z,6.40
2019-02-20T04:54:13.288Z,6.40
2019-02-20T04:56:54.898Z,6.40
2019-02-20T04:59:37.601Z,6.30
2019-02-20T05:02:20.295Z,6.30
2019-02-20T05:05:05.362Z,6.30
2019-02-20T05:07:48.710Z,6.30
2019-02-20T05:10:31.621Z,6.30
2019-02-20T05:13:14.688Z,6.20
2019-02-20T05:15:57.591Z,6.20
2019-02-20T05:18:40.668Z,6.20
2019-02-20T05:21:25.070Z,6.20
2019-02-20T05:24:08.378Z,6.30
2019-02-20T05:26:53.401Z,6.30
2019-02-20T05:29:38.504Z,6.30
2019-02-20T05:32:23.454Z,6.20
2019-02-20T05:35:06.556Z,6.20
2019-02-20T05:37:53.083Z,6.20
2019-02-20T05:40:35.705Z,6.20
2019-02-20T05:43:21.792Z,6.20
2019-02-20T05:46:07.247Z,6.20
2019-02-20T05:48:50.854Z,6.20
2019-02-20T05:51:33.587Z,6.20
2019-02-20T05:54:16.528Z,6.20
2019-02-20T05:56:59.298Z,6.30
2019-02-20T05:59:43.872Z,6.30
2019-02-20T06:02:26.972Z,6.30
2019-02-20T06:05:10.405Z,6.30
2019-02-20T06:07:53.982Z,6.40
2019-02-20T06:10:37.540Z,6.50
2019-02-20T06:13:21.377Z,6.60
2019-02-20T06:16:06.228Z,6.60
2019-02-20T06:18:49.788Z,6.70
2019-02-20T06:21:34.341Z,6.70
2019-02-20T06:24:17.449Z,6.90
2019-02-20T06:29:42.675Z,7.30
2019-02-20T06:32:28.480Z,7.40
2019-02-20T06:35:11.954Z,7.60
2019-02-20T06:37:56.628Z,7.80
2019-02-20T06:40:41.870Z,8.00
2019-02-20T06:43:26.576Z,8.30
2019-02-20T06:46:10.639Z,8.50
2019-02-20T06:48:53.632Z,8.60
2019-02-20T06:51:36.788Z,8.70
2019-02-20T06:54:19.965Z,8.80
2019-02-20T06:57:03.326Z,8.80
2019-02-20T06:59:46.734Z,8.70
2019-02-20T07:02:29.737Z,8.80
2019-02-20T07:05:13.305Z,8.80
2019-02-20T07:07:58.538Z,8.80
2019-02-20T07:10:42.164Z,8.90
2019-02-20T07:13:24.973Z,8.90
2019-02-20T07:16:08.072Z,9.00
2019-02-20T07:18:50.911Z,9.10
2019-02-20T07:21:34.600Z,9.20
2019-02-20T07:24:17.649Z,9.40
2019-02-20T07:27:02.039Z,9.60
2019-02-20T07:29:47.064Z,9.80
2019-02-20T07:32:32.320Z,10.00
2019-02-20T07:35:15.132Z,10.20
2019-02-20T07:37:58.286Z,10.50
2019-02-20T07:40:41.879Z,10.80
2019-02-20T07:43:27.204Z,11.10
2019-02-20T07:46:10.928Z,11.40
2019-02-20T07:48:53.620Z,11.60
2019-02-20T07:51:36.782Z,11.90
2019-02-20T07:54:19.498Z,12.10
2019-02-20T07:57:03.092Z,12.30
2019-02-20T07:59:45.584Z,12.50
2019-02-20T08:02:28.567Z,12.60
2019-02-20T08:05:13.757Z,12.70
2019-02-20T08:07:57.149Z,12.80
2019-02-20T08:13:22.060Z,13.20
2019-02-20T08:16:07.367Z,13.60
2019-02-20T08:18:50.065Z,14.00
2019-02-20T08:21:35.006Z,14.40
2019-02-20T08:24:17.974Z,15.00
2019-02-20T08:27:04.569Z,15.40
2019-02-20T08:32:29.576Z,16.40
2019-02-20T08:35:13.458Z,17.40
2019-02-20T08:37:58.569Z,18.10
2019-02-20T08:40:41.712Z,19.00
2019-02-20T08:46:07.042Z,21.40
2019-02-20T08:48:50.268Z,22.50
2019-02-20T08:51:33.723Z,23.70
2019-02-20T08:54:18.904Z,24.60
2019-02-20T08:57:03.491Z,25.10
2019-02-20T08:59:46.449Z,25.40
2019-02-20T09:02:29.441Z,25.70
2019-02-20T09:05:13.459Z,25.50
2019-02-20T09:07:56.741Z,24.90
2019-02-20T09:10:39.500Z,24.50
2019-02-20T09:13:22.501Z,24.70
2019-02-20T09:16:05.311Z,25.10
2019-02-20T09:18:48.830Z,24.60
2019-02-20T09:21:33.819Z,23.50
2019-02-20T09:24:17.097Z,22.50
2019-02-20T09:27:00.500Z,22.00
2019-02-20T09:29:45.962Z,21.90
2019-02-20T09:32:30.728Z,22.40
2019-02-20T09:35:15.802Z,22.80
2019-02-20T09:38:00.568Z,22.50
2019-02-20T09:40:43.569Z,21.70
2019-02-20T09:43:26.659Z,20.70
2019-02-20T09:46:10.101Z,20.10
2019-02-20T09:48:54.173Z,21.20
2019-02-20T09:51:36.696Z,23.90
2019-02-20T09:54:19.617Z,25.50
2019-02-20T09:57:02.823Z,25.80
2019-02-20T09:59:46.354Z,27.70
2019-02-20T10:02:32.997Z,28.70
2019-02-20T10:05:16.438Z,29.70
2019-02-20T10:07:59.237Z,30.10
2019-02-20T10:10:42.245Z,30.90
2019-02-20T10:13:25.917Z,31.70
2019-02-20T10:16:09.605Z,32.30
2019-02-20T10:18:53.072Z,32.50
2019-02-20T10:21:37.204Z,33.00
2019-02-20T10:24:22.225Z,34.30
2019-02-20T10:27:06.165Z,36.30
2019-02-20T10:29:50.748Z,38.30
2019-02-20T10:32:34.011Z,39.30
2019-02-20T10:35:17.531Z,39.40
2019-02-20T10:38:01.640Z,38.50
2019-02-20T10:40:44.639Z,37.90
2019-02-20T10:43:28.216Z,36.30
2019-02-20T10:46:10.869Z,35.30
2019-02-20T10:48:55.303Z,35.00
2019-02-20T10:51:38.682Z,34.80
2019-02-20T10:54:23.426Z,35.90
2019-02-20T10:57:06.809Z,37.60
2019-02-20T10:59:50.489Z,38.20
2019-02-20T11:02:33.055Z,38.80
2019-02-20T11:05:16.149Z,38.70
2019-02-20T11:10:41.700Z,34.70
2019-02-20T11:13:24.368Z,31.50
2019-02-20T11:16:07.898Z,29.80
2019-02-20T11:18:51.170Z,28.40
2019-02-20T11:21:34.200Z,27.70
2019-02-20T11:24:17.913Z,27.00
2019-02-20T11:27:01.171Z,25.70
2019-02-20T11:29:44.229Z,24.30
2019-02-20T11:32:27.533Z,23.90
2019-02-20T11:35:10.680Z,23.10
2019-02-20T11:37:54.197Z,24.30
2019-02-20T11:40:37.417Z,24.30
2019-02-20T11:43:21.381Z,24.80
2019-02-20T11:46:04.552Z,26.80
2019-02-20T11:48:47.378Z,26.30
2019-02-20T11:51:33.584Z,26.30
2019-02-20T11:54:16.810Z,26.30
2019-02-20T11:57:00.114Z,25.80
2019-02-20T11:59:45.701Z,25.90
2019-02-20T12:02:37.326Z,25.10
2019-02-20T12:05:14.764Z,26.30
2019-02-20T12:07:57.460Z,28.30
2019-02-20T12:10:43.060Z,29.30
2019-02-20T12:13:25.767Z,30.00
2019-02-20T12:16:09.104Z,29.60
2019-02-20T12:18:51.990Z,31.00
2019-02-20T12:21:37.422Z,32.20
2019-02-20T12:24:20.291Z,34.50
2019-02-20T12:27:03.420Z,35.90
2019-02-20T12:29:46.881Z,36.00
2019-02-20T12:32:30.956Z,35.70
2019-02-20T12:35:14.234Z,33.90
2019-02-20T12:37:57.197Z,31.20
2019-02-20T12:40:40.704Z,29.70
2019-02-20T12:43:25.849Z,29.60
2019-02-20T12:48:54.675Z,32.20
2019-02-20T12:51:39.098Z,32.50
2019-02-20T12:54:22.217Z,33.00
2019-02-20T12:57:05.245Z,33.30
2019-02-20T12:59:51.356Z,33.80
2019-02-20T13:02:35.999Z,33.90
2019-02-20T13:05:18.521Z,34.20
2019-02-20T13:08:01.732Z,34.40
2019-02-20T13:10:44.797Z,33.70
2019-02-20T13:13:27.455Z,31.90
2019-02-20T13:16:13.950Z,30.30
2019-02-20T13:18:56.546Z,28.40
2019-02-20T13:21:43.154Z,26.80
2019-02-20T13:24:26.485Z,25.50
2019-02-20T13:27:10.399Z,24.50
2019-02-20T13:29:53.008Z,23.60
2019-02-20T13:32:38.188Z,22.80
2019-02-20T13:35:22.956Z,22.20
2019-02-20T13:38:08.056Z,21.50
2019-02-20T13:40:52.717Z,20.80
2019-02-20T13:43:35.283Z,20.30
2019-02-20T13:46:19.104Z,19.90
2019-02-20T13:49:04.348Z,19.10
2019-02-20T13:51:48.697Z,19.10
2019-02-20T13:54:35.486Z,18.80
2019-02-20T13:57:20.818Z,18.50
2019-02-20T14:00:03.487Z,18.40
2019-02-20T14:02:47.009Z,18.30
2019-02-20T14:05:29.848Z,18.30
2019-02-20T14:08:12.971Z,18.10
2019-02-20T14:10:57.962Z,17.90
2019-02-20T14:13:41.448Z,17.70
2019-02-20T14:16:24.109Z,17.60
2019-02-20T14:19:07.715Z,17.50
2019-02-20T14:21:50.548Z,17.50
2019-02-20T14:24:33.946Z,17.50
2019-02-20T14:30:02.284Z,17.60
2019-02-20T14:32:45.465Z,17.60
2019-02-20T14:35:29.024Z,17.40
2019-02-20T14:38:12.708Z,17.10
2019-02-20T14:40:56.171Z,17.10
2019-02-20T14:43:40.160Z,17.00
2019-02-20T14:46:11.656Z,17.00
2019-02-20T14:49:02.257Z,16.90
2019-02-20T14:51:57.557Z,16.80
2019-02-20T14:54:41.719Z,16.60
2019-02-20T14:57:24.661Z,16.50
2019-02-20T15:00:08.066Z,16.30
2019-02-20T15:02:52.929Z,16.10
2019-02-20T15:05:38.213Z,16.00
2019-02-20T15:08:23.609Z,16.00
2019-02-20T15:11:06.499Z,15.80
2019-02-20T15:13:49.892Z,15.70
2019-02-20T15:16:33.144Z,15.60
2019-02-20T15:19:17.903Z,15.60
2019-02-20T15:22:00.576Z,15.50
2019-02-20T15:24:43.725Z,15.30
2019-02-20T15:27:28.835Z,15.20
2019-02-20T15:30:12.521Z,15.10
2019-02-20T15:32:57.785Z,15.00
2019-02-20T15:35:40.779Z,14.90
2019-02-20T15:38:26.020Z,14.80
2019-02-20T15:41:09.528Z,14.70
2019-02-20T15:43:54.384Z,14.60
2019-02-20T15:46:37.283Z,14.50
2019-02-20T15:49:20.195Z,14.40
2019-02-20T15:52:02.982Z,14.50
2019-02-20T15:54:46.869Z,14.40
2019-02-20T15:57:37.566Z,14.20
2019-02-20T16:00:17.642Z,14.10
2019-02-20T16:03:00.841Z,14.00
2019-02-20T16:05:43.596Z,13.90
2019-02-20T16:08:26.501Z,13.90
2019-02-20T16:11:09.794Z,13.70
2019-02-20T16:13:52.527Z,13.60
2019-02-20T16:16:36.591Z,13.40
2019-02-20T16:19:20.502Z,13.30
2019-02-20T16:22:04.685Z,13.30
2019-02-20T16:24:47.472Z,13.30
2019-02-20T16:27:31.533Z,13.30
2019-02-20T16:30:16.379Z,13.30
2019-02-20T16:33:00.958Z,13.20
2019-02-20T16:35:45.095Z,13.10
2019-02-20T16:38:27.941Z,12.90
2019-02-20T16:41:11.170Z,12.80
2019-02-20T16:43:55.250Z,12.80
2019-02-20T16:46:38.360Z,12.70
2019-02-20T16:49:20.944Z,12.60
2019-02-20T16:52:06.534Z,12.50
2019-02-20T16:54:50.078Z,12.40
2019-02-20T16:57:35.357Z,12.40
2019-02-20T17:00:18.924Z,12.30
2019-02-20T17:03:05.674Z,12.20
2019-02-20T17:05:48.691Z,12.10
2019-02-20T17:08:32.154Z,12.00
2019-02-20T17:11:15.770Z,12.00
2019-02-20T17:13:58.907Z,12.80
2019-02-20T17:16:41.633Z,12.00
2019-02-20T17:22:09.497Z,11.80
2019-02-20T17:24:54.521Z,11.80
2019-02-20T17:27:39.800Z,11.70
2019-02-20T17:30:25.034Z,11.70
2019-02-20T17:33:09.505Z,11.80
2019-02-20T17:38:35.592Z,11.60
2019-02-20T17:41:18.867Z,11.50
2019-02-20T17:44:02.682Z,11.40
2019-02-20T17:46:45.395Z,11.40
2019-02-20T17:49:28.920Z,11.30
2019-02-20T17:52:12.119Z,11.20
2019-02-20T17:54:56.940Z,11.20
2019-02-20T17:57:40.474Z,11.20
2019-02-20T18:00:24.844Z,11.20
2019-02-20T18:03:09.716Z,11.10
2019-02-20T18:05:52.658Z,11.00
2019-02-20T18:08:39.304Z,11.00
2019-02-20T18:11:22.060Z,10.90
2019-02-20T18:14:06.811Z,10.70
2019-02-20T18:16:53.461Z,10.70
2019-02-20T18:19:36.845Z,10.70
2019-02-20T18:22:19.948Z,10.70
2019-02-20T18:25:04.133Z,10.60
2019-02-20T18:27:47.665Z,10.60
2019-02-20T18:30:31.745Z,10.50
2019-02-20T18:33:14.992Z,10.50
2019-02-20T18:35:58.040Z,10.50
2019-02-20T18:38:41.429Z,10.50
2019-02-20T18:41:24.561Z,10.50
2019-02-20T18:44:07.717Z,10.40
2019-02-20T18:46:52.347Z,10.30
2019-02-20T18:49:35.776Z,10.20
2019-02-20T18:52:19.123Z,10.20
2019-02-20T18:55:05.729Z,10.10
2019-02-20T18:57:48.854Z,10.00
2019-02-20T19:00:32.424Z,9.90
2019-02-20T19:03:17.587Z,9.80
2019-02-20T19:06:03.129Z,9.80
2019-02-20T19:08:45.934Z,9.80
2019-02-20T19:11:29.416Z,9.80
2019-02-20T19:14:12.228Z,9.80
2019-02-20T19:16:55.589Z,9.80
2019-02-20T19:19:39.655Z,9.90
2019-02-20T19:22:23.122Z,10.10
2019-02-20T19:25:06.131Z,10.10
2019-02-20T19:27:49.273Z,10.10
2019-02-20T19:30:32.007Z,10.00
2019-02-20T19:33:16.961Z,9.90
2019-02-20T19:36:00.442Z,9.90
2019-02-20T19:38:44.864Z,9.80
2019-02-20T19:41:28.441Z,9.80
2019-02-20T19:44:11.243Z,9.70
2019-02-20T19:46:54.033Z,9.70
2019-02-20T19:49:37.486Z,9.70
2019-02-20T19:52:20.802Z,9.70
2019-02-20T19:55:05.810Z,9.60
2019-02-20T19:57:49.000Z,9.60
2019-02-20T20:00:31.803Z,9.60
2019-02-20T20:03:15.891Z,9.60
2019-02-20T20:05:58.606Z,9.60
2019-02-20T20:08:41.718Z,9.60
2019-02-20T20:11:27.417Z,9.60
2019-02-20T20:14:10.368Z,9.60
2019-02-20T20:16:53.465Z,9.60
2019-02-20T20:19:36.482Z,9.60
2019-02-20T20:22:19.658Z,9.60
2019-02-20T20:25:02.658Z,9.60
2019-02-20T20:27:45.863Z,9.60
2019-02-20T20:30:28.669Z,9.60
2019-02-20T20:33:11.983Z,9.50
2019-02-20T20:35:54.847Z,9.50
2019-02-20T20:38:38.475Z,9.60
2019-02-20T20:41:22.070Z,9.70
2019-02-20T20:44:07.083Z,9.80
2019-02-20T20:46:51.538Z,9.70
2019-02-20T20:49:34.902Z,9.70
2019-02-20T20:52:18.788Z,9.60
2019-02-20T20:55:01.890Z,9.60
2019-02-20T20:57:45.574Z,9.60
2019-02-20T21:00:31.582Z,9.50
2019-02-20T21:03:17.057Z,9.50
2019-02-20T21:06:00.282Z,9.40
2019-02-20T21:08:44.396Z,9.30
2019-02-20T21:11:27.028Z,9.30
2019-02-20T21:14:10.366Z,9.20
2019-02-20T21:16:53.528Z,9.20
2019-02-20T21:19:36.934Z,9.10
2019-02-20T21:22:21.709Z,9.10
2019-02-20T21:25:04.827Z,9.00
2019-02-20T21:27:47.674Z,9.00
2019-02-20T21:30:32.387Z,9.20
2019-02-20T21:33:18.875Z,9.20
2019-02-20T21:36:01.729Z,9.20
2019-02-20T21:38:45.697Z,9.10
2019-02-20T21:41:30.817Z,9.10
2019-02-20T21:44:14.450Z,9.00
2019-02-20T21:46:57.475Z,9.00
2019-02-20T21:49:40.151Z,8.90
2019-02-20T21:52:25.394Z,8.90
2019-02-20T21:55:08.758Z,8.80
2019-02-20T21:57:52.105Z,8.70
2019-02-20T22:00:35.384Z,8.70
2019-02-20T22:03:20.265Z,8.70
2019-02-20T22:06:03.732Z,8.60
2019-02-20T22:09:13.337Z,8.70
2019-02-20T22:12:02.624Z,8.60
2019-02-20T22:14:47.042Z,8.70
2019-02-20T22:17:32.151Z,8.50
2019-02-20T22:20:15.523Z,8.50
2019-02-20T22:22:58.155Z,8.50
2019-02-20T22:25:41.543Z,8.40
2019-02-20T22:28:24.130Z,8.40
2019-02-20T22:31:07.031Z,8.30
2019-02-20T22:33:49.939Z,8.20
2019-02-20T22:36:33.342Z,8.20
2019-02-20T22:39:16.728Z,8.20
2019-02-20T22:42:00.607Z,8.10
2019-02-20T22:45:10.128Z,8.10
2019-02-20T22:47:53.389Z,8.10
2019-02-20T22:50:36.383Z,8.00
2019-02-20T22:53:21.759Z,8.00
2019-02-20T22:56:04.886Z,8.00
2019-02-20T22:58:49.955Z,8.00
2019-02-20T23:01:32.523Z,8.00
2019-02-20T23:04:17.482Z,7.90
2019-02-20T23:07:00.672Z,7.90
2019-02-20T23:09:43.962Z,7.90
2019-02-20T23:12:28.302Z,7.90
2019-02-20T23:15:12.849Z,7.90
2019-02-20T23:17:55.483Z,7.80
2019-02-20T23:23:21.365Z,7.80
2019-02-20T23:26:06.602Z,7.80
2019-02-20T23:28:51.860Z,7.70
2019-02-20T23:31:34.474Z,7.70
2019-02-20T23:34:18.343Z,7.70
2019-02-20T23:37:01.741Z,7.60
2019-02-20T23:39:46.157Z,7.60
2019-02-20T23:42:29.361Z,7.50
2019-02-20T23:45:13.424Z,7.50
2019-02-20T23:47:56.929Z,7.50
2019-02-20T23:50:40.960Z,7.50
2019-02-20T23:53:26.407Z,7.50
2019-02-20T23:56:09.737Z,7.50
2019-02-20T23:58:53.319Z,7.40
